Time;durP1;ratioP1;P1;durP2;ratioP2;P2;SDS_P1;SDS_P2;PMS_P1;PMS_P2;Temp;Humidity;BMP_temperature;BMP_pressure;BME280_temperature;BME280_humidity;BME280_pressure;Samples;Min_cycle;Max_cycle;Signal;HPM_P1;HPM_P2
2022/07/03 00:01:59;;;;;;;6.70;1.90;;;;;;;14.59;71.20;100932.17;106388;1274;23131;-74
2022/07/03 00:04:31;;;;;;;7.60;1.80;;;;;;;14.55;71.32;100929.05;106341;1274;22707;-73
2022/07/03 00:07:00;;;;;;;10.00;2.00;;;;;;;14.50;71.57;100923.77;106207;1273;25110;-75
2022/07/03 00:09:31;;;;;;;6.90;1.90;;;;;;;14.48;71.62;100918.23;106407;1273;22603;-72
2022/07/03 00:12:01;;;;;;;6.00;1.80;;;;;;;14.46;71.71;100920.55;106290;1274;25335;-74
2022/07/03 00:14:29;;;;;;;8.40;1.90;;;;;;;14.43;71.92;100920.10;106159;1274;25873;-74
2022/07/03 00:16:58;;;;;;;8.80;2.10;;;;;;;14.41;71.78;100913.58;106344;1272;25281;-73
2022/07/03 00:19:27;;;;;;;5.60;1.80;;;;;;;14.40;71.89;100913.57;106164;1274;22603;-73
2022/07/03 00:22:02;;;;;;;5.60;1.90;;;;;;;14.39;72.05;100911.10;106481;1273;24466;-73
2022/07/03 00:24:39;;;;;;;7.10;2.00;;;;;;;14.36;72.30;100912.42;106380;1273;25371;-74
2022/07/03 00:27:09;;;;;;;6.90;1.70;;;;;;;14.32;72.37;100910.22;106140;1273;22652;-74
2022/07/03 00:29:41;;;;;;;8.90;2.00;;;;;;;14.28;72.38;100912.95;106414;1273;24222;-73
2022/07/03 00:32:19;;;;;;;7.60;1.80;;;;;;;14.24;72.65;100917.02;106375;1273;22700;-74
2022/07/03 00:34:58;;;;;;;6.10;1.70;;;;;;;14.20;72.64;100922.44;106393;1273;25412;-75
2022/07/03 00:37:28;;;;;;;5.00;1.60;;;;;;;14.16;72.82;100921.80;106351;1274;22540;-73
2022/07/03 00:39:59;;;;;;;8.50;1.80;;;;;;;14.10;72.81;100927.33;106183;1273;24310;-74
2022/07/03 00:42:28;;;;;;;6.60;1.50;;;;;;;14.05;72.82;100927.40;106329;1273;24320;-75
2022/07/03 00:45:00;;;;;;;7.80;1.50;;;;;;;14.02;73.11;100925.16;106275;1273;22702;-74
2022/07/03 00:47:29;;;;;;;4.90;1.60;;;;;;;13.97;73.03;100925.90;106378;1274;22649;-74
2022/07/03 00:49:58;;;;;;;9.60;1.60;;;;;;;13.93;73.03;100924.14;106421;1273;22560;-74
2022/07/03 00:52:31;;;;;;;6.00;1.40;;;;;;;13.88;73.13;100926.27;106487;1273;25777;-75
2022/07/03 00:55:01;;;;;;;7.00;1.60;;;;;;;13.85;73.35;100926.15;106373;1274;22661;-75
2022/07/03 00:57:31;;;;;;;5.80;1.30;;;;;;;13.80;73.09;100920.98;106184;1273;22694;-74
2022/07/03 01:00:00;;;;;;;4.50;1.50;;;;;;;13.76;73.37;100917.76;106207;1273;22710;-74
2022/07/03 01:02:45;;;;;;;5.30;1.70;;;;;;;13.74;73.61;100917.31;106318;1273;24238;-74
2022/07/03 01:05:25;;;;;;;5.10;1.30;;;;;;;13.72;73.70;100909.72;106275;1274;25274;-74
2022/07/03 01:08:00;;;;;;;;;;;;;;;13.70;73.97;100902.40;106113;1273;22557;-74
2022/07/03 01:10:38;;;;;;;12.30;1.60;;;;;;;13.65;74.23;100894.16;106378;1273;24368;-75
2022/07/03 01:13:14;;;;;;;5.90;1.50;;;;;;;13.62;74.20;100899.49;106343;1273;24058;-74
2022/07/03 01:15:58;;;;;;;5.00;1.30;;;;;;;13.58;74.21;100896.98;106381;1273;23211;-74
2022/07/03 01:18:40;;;;;;;5.50;1.70;;;;;;;13.54;74.26;100898.40;106576;1273;22558;-74
2022/07/03 01:21:14;;;;;;;8.50;1.90;;;;;;;13.51;74.38;100893.59;106343;1273;24285;-73
2022/07/03 01:24:10;;;;;;;7.70;1.80;;;;;;;13.49;74.40;100883.56;106418;1273;24045;-75
2022/07/03 01:26:41;;;;;;;5.40;1.60;;;;;;;13.46;74.36;100888.87;106162;1273;22552;-76
2022/07/03 01:29:15;;;;;;;8.60;2.10;;;;;;;13.44;74.43;100890.77;106244;1273;22588;-74
2022/07/03 01:31:48;;;;;;;7.80;1.90;;;;;;;13.41;74.41;100887.88;106272;1273;22648;-74
2022/07/03 01:34:19;;;;;;;6.30;2.00;;;;;;;13.37;74.38;100884.98;106207;1273;24298;-75
2022/07/03 01:36:50;;;;;;;7.00;2.00;;;;;;;13.32;74.48;100885.16;106273;1273;25301;-74
2022/07/03 01:39:22;;;;;;;9.30;1.90;;;;;;;13.29;74.66;100877.81;106423;1273;22543;-73
2022/07/03 01:41:53;;;;;;;4.70;1.50;;;;;;;13.30;74.75;100873.73;106320;1274;24291;-72
2022/07/03 01:44:25;;;;;;;6.00;1.70;;;;;;;13.30;74.71;100868.64;106356;1273;25310;-74
2022/07/03 01:46:57;;;;;;;10.60;2.00;;;;;;;13.29;74.82;100875.16;106184;1273;24277;-74
2022/07/03 01:49:28;;;;;;;6.70;1.90;;;;;;;13.29;75.29;100873.07;106190;1273;22677;-74
2022/07/03 01:51:58;;;;;;;5.30;1.70;;;;;;;13.29;75.07;100868.83;106422;1273;22575;-75
2022/07/03 01:54:28;;;;;;;7.60;2.00;;;;;;;13.29;75.18;100866.49;106256;1273;23285;-74
2022/07/03 01:56:59;;;;;;;6.80;1.90;;;;;;;13.27;75.19;100867.36;106432;1272;24473;-74
2022/07/03 01:59:27;;;;;;;;;;;;;;;13.23;75.42;100868.00;106210;1273;24493;-74
2022/07/03 02:02:05;;;;;;;6.20;1.80;;;;;;;13.19;75.43;100866.66;106458;1273;22545;-74
2022/07/03 02:04:43;;;;;;;7.90;2.20;;;;;;;13.15;75.32;100865.05;106282;1273;22720;-73
2022/07/03 02:07:19;;;;;;;8.70;2.20;;;;;;;13.11;75.42;100866.30;106227;1273;22538;-74
2022/07/03 02:10:03;;;;;;;5.80;2.00;;;;;;;13.08;75.51;100864.27;106223;1273;24219;-74
2022/07/03 02:12:39;;;;;;;9.20;2.40;;;;;;;13.03;75.60;100863.80;106281;1273;22876;-75
2022/07/03 02:15:11;;;;;;;9.70;2.90;;;;;;;12.99;75.58;100867.07;106315;1273;24227;-74
2022/07/03 02:17:45;;;;;;;8.90;2.50;;;;;;;12.94;75.65;100870.03;106422;1273;25510;-74
2022/07/03 02:20:16;;;;;;;7.70;2.60;;;;;;;12.91;75.61;100868.85;106445;1273;25499;-74
2022/07/03 02:22:47;;;;;;;7.20;2.60;;;;;;;12.88;75.73;100861.70;106238;1273;26512;-74
2022/07/03 02:25:21;;;;;;;8.60;2.60;;;;;;;12.87;75.76;100858.58;106260;1273;22555;-74
2022/07/03 02:27:56;;;;;;;8.00;2.60;;;;;;;12.85;75.52;100858.98;106330;1273;22557;-74
2022/07/03 02:30:27;;;;;;;7.70;2.50;;;;;;;12.83;75.77;100858.70;106348;1271;23881;-75
2022/07/03 02:33:02;;;;;;;11.60;3.00;;;;;;;12.81;75.82;100861.61;106410;1273;22543;-73
2022/07/03 02:35:33;;;;;;;8.20;3.00;;;;;;;12.77;75.96;100858.85;106205;1273;22715;-74
2022/07/03 02:38:08;;;;;;;9.50;3.00;;;;;;;12.75;76.06;100855.44;106491;1273;25410;-74
2022/07/03 02:40:43;;;;;;;13.70;3.10;;;;;;;12.72;76.18;100855.64;106241;1273;27686;-74
2022/07/03 02:43:19;;;;;;;11.30;3.80;;;;;;;12.70;76.27;100856.35;106343;1273;22589;-74
2022/07/03 02:45:55;;;;;;;9.40;2.70;;;;;;;12.67;76.65;100859.77;106323;1273;25337;-74
2022/07/03 02:48:32;;;;;;;10.30;3.30;;;;;;;12.65;76.56;100867.32;106132;1273;22538;-74
2022/07/03 02:51:08;;;;;;;10.20;2.90;;;;;;;12.63;76.51;100870.78;106314;1273;22558;-74
2022/07/03 02:53:46;;;;;;;10.70;3.20;;;;;;;12.62;76.81;100869.39;106435;1273;25243;-74
2022/07/03 02:56:19;;;;;;;7.40;2.50;;;;;;;12.60;76.80;100866.75;106494;1273;22550;-74
2022/07/03 02:59:04;;;;;;;11.10;2.70;;;;;;;12.58;76.69;100865.19;106388;1273;22783;-74
2022/07/03 03:01:47;;;;;;;6.70;2.40;;;;;;;12.57;76.77;100867.56;106547;1273;22486;-74
2022/07/03 03:04:27;;;;;;;7.90;2.60;;;;;;;12.55;76.70;100864.85;106388;1273;27373;-74
2022/07/03 03:07:07;;;;;;;5.90;2.10;;;;;;;12.54;76.87;100866.32;106411;1273;25349;-74
2022/07/03 03:09:42;;;;;;;10.30;2.30;;;;;;;12.52;76.88;100862.86;105941;1273;511097;-74
2022/07/03 03:12:18;;;;;;;9.00;2.40;;;;;;;12.51;76.85;100861.15;106356;1273;25501;-74
2022/07/03 03:15:01;;;;;;;8.40;2.60;;;;;;;12.49;77.22;100864.08;106370;1273;22716;-74
2022/07/03 03:17:37;;;;;;;6.80;2.20;;;;;;;12.48;77.34;100867.86;106397;1273;24299;-75
2022/07/03 03:20:15;;;;;;;7.40;2.30;;;;;;;12.48;77.34;100858.34;106161;1273;24312;-75
2022/07/03 03:23:09;;;;;;;6.60;2.60;;;;;;;12.48;77.38;100859.05;106178;1273;22612;-73
2022/07/03 03:25:54;;;;;;;10.40;3.00;;;;;;;12.49;77.51;100866.30;106333;1273;22693;-74
2022/07/03 03:28:23;;;;;;;6.50;2.50;;;;;;;12.49;77.82;100870.04;106313;1273;22544;-74
2022/07/03 03:30:52;;;;;;;8.00;2.70;;;;;;;12.50;78.09;100870.30;106088;1273;22661;-75
2022/07/03 03:33:20;;;;;;;8.30;2.50;;;;;;;12.51;78.14;100868.13;106147;1273;23114;-74
2022/07/03 03:35:49;;;;;;;10.70;4.10;;;;;;;12.52;78.36;100869.52;106329;1273;22630;-75
2022/07/03 03:38:18;;;;;;;9.90;3.40;;;;;;;12.53;78.45;100868.98;106359;1273;23327;-74
2022/07/03 03:40:49;;;;;;;7.80;2.90;;;;;;;12.54;78.56;100866.52;106242;1273;25583;-74
2022/07/03 03:43:21;;;;;;;13.70;2.80;;;;;;;12.57;78.85;100870.29;106399;1273;24298;-74
2022/07/03 03:45:50;;;;;;;7.60;3.30;;;;;;;12.58;78.84;100866.86;106338;1273;25373;-73
2022/07/03 03:48:19;;;;;;;11.60;3.60;;;;;;;12.61;79.22;100867.94;106126;1273;22661;-74
2022/07/03 03:50:49;;;;;;;9.70;3.60;;;;;;;12.65;79.11;100866.03;106566;1273;25196;-74
2022/07/03 03:53:20;;;;;;;9.10;3.20;;;;;;;12.69;79.42;100862.70;106341;1273;25619;-74
2022/07/03 03:55:58;;;;;;;9.90;3.80;;;;;;;12.73;79.62;100862.80;106360;1273;22564;-73
2022/07/03 03:58:29;;;;;;;10.30;4.80;;;;;;;12.80;79.71;100853.66;106225;1273;22624;-74
2022/07/03 04:00:59;;;;;;;10.70;4.90;;;;;;;12.87;80.10;100854.77;106545;1273;26530;-73
2022/07/03 04:03:28;;;;;;;13.80;5.40;;;;;;;12.95;80.16;100851.91;106283;1273;22498;-74
2022/07/03 04:05:57;;;;;;;11.10;4.40;;;;;;;13.01;80.42;100845.77;106416;1273;22545;-74
2022/07/03 04:08:28;;;;;;;11.80;4.60;;;;;;;13.07;80.71;100840.86;106402;1273;22560;-73
2022/07/03 04:10:57;;;;;;;11.70;5.20;;;;;;;13.14;80.73;100835.92;106342;1273;22549;-73
2022/07/03 04:13:28;;;;;;;10.60;4.10;;;;;;;13.22;80.90;100830.11;106320;1273;22600;-74
2022/07/03 04:15:57;;;;;;;13.00;5.30;;;;;;;13.32;81.02;100840.30;106127;1273;22583;-73
2022/07/03 04:18:26;;;;;;;10.40;4.40;;;;;;;13.41;81.04;100843.40;106134;1274;24281;-74
2022/07/03 04:20:55;;;;;;;10.30;4.00;;;;;;;13.49;81.14;100844.55;106320;1273;25411;-75
2022/07/03 04:23:25;;;;;;;11.30;4.80;;;;;;;13.59;81.34;100842.83;106218;1273;24932;-75
2022/07/03 04:25:54;;;;;;;11.20;5.40;;;;;;;13.70;81.64;100843.93;106273;1273;24387;-74
2022/07/03 04:28:23;;;;;;;14.80;5.80;;;;;;;13.79;81.41;100839.63;106308;1273;22769;-74
2022/07/03 04:30:52;;;;;;;11.90;5.60;;;;;;;13.86;81.49;100844.02;106309;1272;25513;-74
2022/07/03 04:33:23;;;;;;;11.40;5.30;;;;;;;13.93;81.47;100849.64;106148;1273;24257;-74
2022/07/03 04:35:53;;;;;;;12.70;5.60;;;;;;;14.00;81.43;100846.98;106351;1273;25137;-73
2022/07/03 04:38:22;;;;;;;13.70;5.70;;;;;;;14.07;81.67;100844.33;106360;1273;22657;-74
2022/07/03 04:40:51;;;;;;;13.10;5.30;;;;;;;14.17;81.85;100842.48;106415;1273;22684;-74
2022/07/03 04:43:20;;;;;;;12.80;6.20;;;;;;;14.28;81.85;100844.02;106292;1273;22737;-74
2022/07/03 04:45:49;;;;;;;11.50;5.30;;;;;;;14.38;82.01;100843.67;106199;1273;22639;-74
2022/07/03 04:48:18;;;;;;;11.80;5.10;;;;;;;14.47;82.00;100843.08;106411;1273;24683;-74
2022/07/03 04:50:47;;;;;;;13.50;6.00;;;;;;;14.56;82.02;100844.05;106284;1273;22721;-74
2022/07/03 04:53:17;;;;;;;11.40;4.90;;;;;;;14.67;82.18;100853.23;106278;1273;24277;-74
2022/07/03 04:55:46;;;;;;;10.40;5.30;;;;;;;14.79;82.32;100857.92;106391;1273;24236;-73
2022/07/03 04:58:15;;;;;;;12.20;5.40;;;;;;;14.91;82.42;100855.61;106312;1273;24992;-73
2022/07/03 05:00:46;;;;;;;12.00;5.40;;;;;;;15.03;82.46;100854.91;106310;1273;22637;-73
2022/07/03 05:03:15;;;;;;;13.10;5.60;;;;;;;15.16;82.40;100853.02;106400;1273;24087;-74
2022/07/03 05:05:45;;;;;;;13.20;5.80;;;;;;;15.29;82.11;100846.64;106241;1273;25524;-73
2022/07/03 05:08:15;;;;;;;11.30;5.50;;;;;;;15.39;82.04;100846.89;106852;1261;92595;-61
2022/07/03 05:10:44;;;;;;;14.60;5.20;;;;;;;15.53;82.25;100848.27;106000;1273;24241;-61
2022/07/03 05:13:15;;;;;;;12.00;5.00;;;;;;;15.64;82.40;100844.42;106137;1273;23023;-60
2022/07/03 05:15:45;;;;;;;10.70;4.90;;;;;;;15.73;81.73;100848.17;109660;1272;22483;-62
2022/07/03 05:18:14;;;;;;;12.40;5.30;;;;;;;15.85;82.34;100845.40;106851;1273;22550;-62
2022/07/03 05:20:43;;;;;;;12.10;5.30;;;;;;;15.99;82.30;100840.33;106183;1272;22662;-62
2022/07/03 05:23:12;;;;;;;11.50;5.90;;;;;;;16.16;82.24;100845.81;106750;1273;24330;-63
2022/07/03 05:25:41;;;;;;;11.70;5.00;;;;;;;16.33;82.03;100842.21;106010;1273;22728;-62
2022/07/03 05:28:10;;;;;;;11.60;5.70;;;;;;;16.47;81.90;100838.77;106055;1273;24367;-62
2022/07/03 05:30:39;;;;;;;10.80;5.20;;;;;;;16.59;81.95;100841.14;105891;1273;24355;-62
2022/07/03 05:33:08;;;;;;;14.00;5.20;;;;;;;16.73;81.80;100836.48;106033;1273;22699;-63
2022/07/03 05:35:38;;;;;;;13.30;4.70;;;;;;;16.88;81.82;100835.65;105959;1273;24558;-63
2022/07/03 05:38:08;;;;;;;11.60;5.20;;;;;;;17.00;81.43;100833.73;105975;1273;24422;-63
2022/07/03 05:40:38;;;;;;;12.40;5.10;;;;;;;17.12;81.44;100832.48;105801;1273;25439;-62
2022/07/03 05:43:08;;;;;;;11.70;5.00;;;;;;;17.26;81.22;100833.48;106188;1273;22621;-63
2022/07/03 05:45:40;;;;;;;10.70;5.00;;;;;;;17.34;81.01;100833.69;105922;1273;25391;-62
2022/07/03 05:48:10;;;;;;;9.90;4.20;;;;;;;17.45;80.85;100834.86;105843;1273;25446;-61
2022/07/03 05:50:39;;;;;;;;;;;;;;;17.57;80.95;100835.00;105702;1273;22532;-60
2022/07/03 05:53:09;;;;;;;8.60;3.70;;;;;;;17.67;80.85;100834.95;106167;1273;24505;-61
2022/07/03 05:55:38;;;;;;;10.80;4.70;;;;;;;17.81;80.80;100831.91;105850;1274;22657;-61
2022/07/03 05:58:07;;;;;;;;;;;;;;;17.93;80.36;100832.92;106194;1273;23156;-60
2022/07/03 06:00:38;;;;;;;8.70;3.70;;;;;;;18.01;80.23;100835.84;105755;1273;25636;-62
2022/07/03 06:03:08;;;;;;;11.50;4.40;;;;;;;18.13;79.46;100830.83;105709;1273;25414;-61
2022/07/03 06:05:39;;;;;;;10.20;4.10;;;;;;;18.26;79.29;100831.31;105812;1273;25377;-62
2022/07/03 06:08:08;;;;;;;10.40;3.80;;;;;;;18.37;79.37;100833.80;105795;1273;25276;-62
2022/07/03 06:10:37;;;;;;;10.80;4.30;;;;;;;18.47;79.22;100837.19;105653;1274;22600;-62
2022/07/03 06:13:06;;;;;;;12.70;3.50;;;;;;;18.62;79.19;100835.48;105743;1273;22547;-62
2022/07/03 06:15:35;;;;;;;9.10;3.10;;;;;;;18.74;78.92;100832.91;105703;1273;22804;-61
2022/07/03 06:18:05;;;;;;;12.30;3.90;;;;;;;18.86;78.53;100836.18;105772;1273;22705;-62
2022/07/03 06:20:35;;;;;;;12.60;5.50;;;;;;;18.94;78.33;100835.64;105664;1273;22564;-63
2022/07/03 06:23:03;;;;;;;9.00;4.10;;;;;;;19.04;78.17;100831.40;105730;1273;22547;-63
2022/07/03 06:25:32;;;;;;;9.20;3.60;;;;;;;19.14;77.90;100836.17;105742;1272;25328;-62
2022/07/03 06:28:01;;;;;;;8.50;3.40;;;;;;;19.25;77.67;100835.85;106022;1273;22790;-61
2022/07/03 06:30:31;;;;;;;12.10;4.00;;;;;;;19.35;77.72;100839.09;105886;1273;25849;-62
2022/07/03 06:33:00;;;;;;;9.20;3.60;;;;;;;19.47;77.11;100836.75;105900;1273;24329;-61
2022/07/03 06:35:29;;;;;;;12.00;3.70;;;;;;;19.53;76.75;100835.61;106001;1273;22541;-61
2022/07/03 06:38:03;;;;;;;7.70;3.40;;;;;;;19.62;77.01;100832.60;105958;1273;25264;-62
2022/07/03 06:40:32;;;;;;;9.70;3.10;;;;;;;19.78;76.70;100829.52;105598;1273;22577;-62
2022/07/03 06:43:02;;;;;;;7.70;3.40;;;;;;;19.92;76.52;100821.81;105901;1273;24268;-63
2022/07/03 06:45:31;;;;;;;7.50;2.70;;;;;;;20.04;75.85;100819.54;105868;1273;25434;-62
2022/07/03 06:48:00;;;;;;;7.80;3.20;;;;;;;20.17;75.45;100816.52;106034;1273;22706;-63
2022/07/03 06:50:30;;;;;;;7.80;3.30;;;;;;;20.29;75.42;100818.17;105822;1273;22557;-63
2022/07/03 06:53:00;;;;;;;7.20;3.00;;;;;;;20.39;74.97;100815.98;106445;1273;22570;-62
2022/07/03 06:55:29;;;;;;;7.20;2.70;;;;;;;20.45;74.46;100816.16;105987;1273;24308;-62
2022/07/03 06:57:59;;;;;;;8.40;3.10;;;;;;;20.52;74.38;100816.08;105843;1273;22544;-63
2022/07/03 07:00:30;;;;;;;7.10;3.10;;;;;;;20.60;73.73;100814.86;105995;1273;25365;-63
2022/07/03 07:02:59;;;;;;;6.00;2.10;;;;;;;20.66;73.60;100811.52;105738;1273;22548;-62
2022/07/03 07:05:28;;;;;;;11.70;2.30;;;;;;;20.78;73.50;100814.34;105732;1273;22542;-62
2022/07/03 07:07:57;;;;;;;7.60;2.60;;;;;;;20.91;72.83;100809.11;109445;1273;22577;-63
2022/07/03 07:10:28;;;;;;;5.40;1.90;;;;;;;21.05;72.28;100810.94;105571;1273;24317;-62
2022/07/03 07:12:58;;;;;;;5.80;2.00;;;;;;;21.16;71.80;100806.23;105640;1273;22734;-63
2022/07/03 07:15:28;;;;;;;6.90;2.50;;;;;;;21.28;71.12;100802.39;105994;1273;24412;-62
2022/07/03 07:17:57;;;;;;;5.00;1.90;;;;;;;21.37;71.08;100798.47;109547;1273;22541;-63
2022/07/03 07:20:27;;;;;;;7.80;2.20;;;;;;;21.48;70.56;100798.65;109577;1273;22456;-64
2022/07/03 07:22:56;;;;;;;5.90;2.20;;;;;;;21.57;70.06;100792.64;105758;1273;22557;-63
2022/07/03 07:25:29;;;;;;;6.00;2.00;;;;;;;21.68;69.88;100788.73;105596;1273;22556;-63
2022/07/03 07:27:58;;;;;;;5.10;1.90;;;;;;;21.77;68.78;100786.64;106214;1273;25525;-64
2022/07/03 07:30:28;;;;;;;4.50;1.60;;;;;;;21.75;68.51;100779.64;105911;1273;22681;-63
2022/07/03 07:32:58;;;;;;;4.90;1.90;;;;;;;21.75;68.00;100782.06;105898;1273;22555;-63
2022/07/03 07:35:28;;;;;;;4.30;1.60;;;;;;;21.80;67.81;100783.52;105650;1273;22700;-62
2022/07/03 07:37:57;;;;;;;5.30;1.80;;;;;;;21.76;67.15;100777.08;105883;1273;25464;-62
2022/07/03 07:40:27;;;;;;;6.40;1.90;;;;;;;21.73;67.25;100776.71;105773;1273;22608;-63
2022/07/03 07:42:57;;;;;;;6.60;2.10;;;;;;;21.72;67.10;100773.79;106178;1273;22538;-62
2022/07/03 07:45:26;;;;;;;5.50;1.70;;;;;;;21.78;67.33;100768.48;106082;1273;26470;-63
2022/07/03 07:47:56;;;;;;;5.20;1.70;;;;;;;21.86;66.94;100767.10;106282;1273;25343;-63
2022/07/03 07:50:26;;;;;;;4.30;1.40;;;;;;;21.94;66.33;100768.52;105674;1273;24441;-64
2022/07/03 07:52:55;;;;;;;6.20;1.60;;;;;;;22.01;64.68;100769.10;105776;1273;22570;-64
2022/07/03 07:55:28;;;;;;;3.30;1.10;;;;;;;22.03;64.73;100765.13;105818;1273;22588;-64
2022/07/03 07:58:00;;;;;;;2.40;1.00;;;;;;;22.04;63.46;100760.77;105709;1273;22599;-65
2022/07/03 08:00:34;;;;;;;4.10;1.30;;;;;;;22.06;63.55;100761.08;106418;1273;25326;-65
2022/07/03 08:05:59;;;;;;;2.80;1.00;;;;;;;22.27;62.60;100764.29;105410;1279;25331;-65
2022/07/03 08:08:29;;;;;;;6.60;1.50;;;;;;;22.34;62.91;100763.41;105375;1278;22650;-65
2022/07/03 08:11:00;;;;;;;3.30;1.30;;;;;;;22.39;62.24;100756.16;105430;1279;22558;-65
2022/07/03 08:13:30;;;;;;;3.20;1.10;;;;;;;22.39;62.29;100752.85;105428;1279;25433;-65
2022/07/03 08:16:01;;;;;;;2.80;1.00;;;;;;;22.47;62.05;100756.89;105549;1277;22791;-65
2022/07/03 08:18:31;;;;;;;5.40;1.10;;;;;;;22.49;61.62;100757.86;109126;1279;23836;-65
2022/07/03 08:21:01;;;;;;;4.30;1.40;;;;;;;22.54;61.37;100756.94;107893;1278;26542;-65
2022/07/03 08:23:29;;;;;;;4.70;1.10;;;;;;;22.66;61.47;100756.51;109110;1279;22433;-65
2022/07/03 08:25:58;;;;;;;3.60;0.80;;;;;;;22.81;61.21;100754.18;109107;1279;23348;-65
2022/07/03 08:28:28;;;;;;;2.60;0.90;;;;;;;22.95;60.29;100757.64;109045;1277;22447;-64
2022/07/03 08:30:56;;;;;;;;;;;;;;;23.09;59.54;100761.96;105645;1279;23935;-64
2022/07/03 08:33:25;;;;;;;3.00;0.80;;;;;;;23.14;58.91;100759.88;105650;1279;23834;-64
2022/07/03 08:35:54;;;;;;;3.30;0.90;;;;;;;23.21;58.87;100760.06;105407;1279;22527;-64
2022/07/03 08:38:30;;;;;;;2.20;0.70;;;;;;;23.26;58.48;100752.90;105458;1279;22841;-64
2022/07/03 08:41:00;;;;;;;3.80;1.20;;;;;;;23.25;57.80;100756.54;105397;1279;24281;-65
2022/07/03 08:43:30;;;;;;;4.20;0.90;;;;;;;23.20;57.31;100751.58;105531;1273;22555;-64
2022/07/03 08:46:02;;;;;;;2.90;0.80;;;;;;;23.17;57.41;100753.08;105891;1273;22584;-64
2022/07/03 08:48:34;;;;;;;3.00;1.10;;;;;;;23.18;57.44;100754.48;105729;1273;22582;-64
2022/07/03 08:51:04;;;;;;;2.90;0.90;;;;;;;23.21;57.16;100755.70;105822;1273;24618;-64
2022/07/03 08:53:32;;;;;;;;;;;;;;;23.22;56.80;100751.39;105811;1273;22555;-64
2022/07/03 08:56:02;;;;;;;2.40;0.80;;;;;;;23.22;56.86;100751.48;105979;1273;22559;-66
2022/07/03 08:58:33;;;;;;;2.80;0.90;;;;;;;23.26;56.45;100747.05;105881;1273;23948;-64
2022/07/03 09:01:02;;;;;;;4.50;1.10;;;;;;;23.36;56.74;100748.83;105746;1273;25076;-64
2022/07/03 09:03:33;;;;;;;2.20;0.80;;;;;;;23.40;55.46;100743.74;105857;1273;25130;-64
2022/07/03 09:06:04;;;;;;;2.70;0.80;;;;;;;23.38;55.69;100736.73;105818;1273;23099;-63
2022/07/03 09:08:33;;;;;;;;;;;;;;;23.39;55.61;100732.30;105776;1273;22677;-63
2022/07/03 09:11:08;;;;;;;2.90;0.80;;;;;;;23.41;55.65;100730.08;106116;1273;22850;-63
2022/07/03 09:13:38;;;;;;;1.80;0.70;;;;;;;23.54;56.01;100730.45;105901;1273;25339;-64
2022/07/03 09:16:17;;;;;;;2.50;0.80;;;;;;;23.80;55.76;100731.98;105768;1273;23863;-63
2022/07/03 09:18:47;;;;;;;2.40;0.60;;;;;;;24.02;54.94;100728.32;105867;1273;22510;-64
2022/07/03 09:21:18;;;;;;;2.40;0.80;;;;;;;24.08;53.96;100723.09;105757;1273;22547;-67
2022/07/03 09:23:47;;;;;;;2.10;0.80;;;;;;;24.06;53.84;100718.89;105684;1273;24380;-66
2022/07/03 09:26:19;;;;;;;1.70;0.60;;;;;;;24.09;53.89;100709.27;105808;1273;25493;-64
2022/07/03 09:28:51;;;;;;;1.40;0.60;;;;;;;24.18;53.54;100712.56;105749;1273;24232;-65
2022/07/03 09:31:22;;;;;;;1.90;0.60;;;;;;;24.25;53.25;100705.75;105766;1273;22542;-65
2022/07/03 09:33:58;;;;;;;3.30;0.70;;;;;;;24.28;52.95;100704.70;105925;1273;22635;-65
2022/07/03 09:36:45;;;;;;;2.40;0.60;;;;;;;24.30;52.93;100709.23;105892;1273;24455;-65
2022/07/03 09:39:21;;;;;;;2.20;0.60;;;;;;;24.44;53.29;100710.44;105624;1273;22483;-64
2022/07/03 09:41:59;;;;;;;1.70;0.60;;;;;;;24.58;52.36;100706.53;105795;1273;24324;-64
2022/07/03 09:44:35;;;;;;;2.80;0.80;;;;;;;24.61;52.22;100702.08;105912;1273;24302;-64
2022/07/03 09:47:21;;;;;;;2.80;0.80;;;;;;;24.57;51.68;100704.89;106123;1273;22547;-64
2022/07/03 09:49:54;;;;;;;2.80;0.90;;;;;;;24.58;51.50;100699.22;105659;1273;25397;-64
2022/07/03 09:52:35;;;;;;;2.90;0.90;;;;;;;24.59;51.07;100697.42;105833;1273;22721;-65
2022/07/03 09:55:15;;;;;;;3.30;0.80;;;;;;;24.54;50.85;100695.98;105748;1271;22547;-65
2022/07/03 09:57:47;;;;;;;1.70;0.50;;;;;;;24.55;51.26;100696.40;105691;1273;24370;-65
2022/07/03 10:00:20;;;;;;;6.00;0.80;;;;;;;24.58;51.04;100693.23;106102;1273;22576;-64
2022/07/03 10:03:01;;;;;;;2.70;0.70;;;;;;;24.60;50.45;100687.20;106085;1273;22576;-65
2022/07/03 10:05:33;;;;;;;3.60;0.80;;;;;;;24.58;50.38;100683.58;105735;1273;23391;-65
2022/07/03 10:08:07;;;;;;;3.70;0.50;;;;;;;24.58;50.88;100682.51;105769;1273;22686;-64
2022/07/03 10:10:39;;;;;;;3.60;0.60;;;;;;;24.64;50.28;100685.00;105821;1273;24225;-64
2022/07/03 10:13:08;;;;;;;1.40;0.50;;;;;;;24.71;50.28;100684.49;105702;1273;26565;-64
2022/07/03 10:15:41;;;;;;;1.80;0.50;;;;;;;24.79;49.94;100682.02;105850;1273;22659;-64
2022/07/03 10:18:13;;;;;;;2.10;0.50;;;;;;;24.85;49.67;100677.23;105716;1273;25635;-63
2022/07/03 10:20:48;;;;;;;5.40;0.60;;;;;;;24.97;49.55;100679.88;105739;1273;22553;-64
2022/07/03 10:23:24;;;;;;;2.00;0.50;;;;;;;25.14;49.39;100677.22;105673;1273;23220;-65
2022/07/03 10:25:54;;;;;;;1.70;0.50;;;;;;;25.33;49.21;100675.59;105721;1273;24358;-65
2022/07/03 10:28:25;;;;;;;3.30;0.50;;;;;;;25.48;49.07;100678.95;105729;1273;25418;-65
2022/07/03 10:30:55;;;;;;;1.70;0.50;;;;;;;25.61;48.53;100668.54;105838;1273;23361;-65
2022/07/03 10:33:27;;;;;;;1.90;0.60;;;;;;;25.70;47.94;100664.25;105973;1273;25652;-66
2022/07/03 10:35:58;;;;;;;3.70;0.60;;;;;;;25.71;47.57;100659.83;105873;1273;22553;-64
2022/07/03 10:39:02;;;;;;;2.00;0.50;;;;;;;25.70;46.97;100655.66;105778;1273;24228;-65
2022/07/03 10:47:43;;;;;;;1.60;0.60;;;;;;;25.38;46.70;100642.04;105650;1273;22564;-65
2022/07/03 10:50:14;;;;;;;1.70;0.50;;;;;;;25.34;47.08;100640.40;106023;1273;22855;-65
2022/07/03 10:52:44;;;;;;;2.80;0.80;;;;;;;25.28;46.45;100640.56;106036;1272;22793;-64
2022/07/03 10:55:16;;;;;;;1.60;0.60;;;;;;;25.15;46.17;100640.35;105892;1273;23195;-63
2022/07/03 10:58:08;;;;;;;1.50;0.50;;;;;;;25.06;46.19;100636.46;105604;1273;22637;-64
2022/07/03 11:00:54;;;;;;;3.30;0.50;;;;;;;25.00;46.50;100635.16;106682;1273;22544;-64
2022/07/03 11:03:57;;;;;;;2.40;0.40;;;;;;;25.00;46.35;100636.48;105955;1273;27311;-64
2022/07/03 11:07:03;;;;;;;2.30;0.60;;;;;;;25.01;46.27;100627.92;105690;1279;22772;-65
2022/07/03 11:09:32;;;;;;;4.70;0.80;;;;;;;25.07;46.33;100620.39;105293;1279;26652;-64
2022/07/03 11:12:03;;;;;;;1.30;0.40;;;;;;;25.06;45.51;100618.90;105292;1279;22646;-65
2022/07/03 11:14:32;;;;;;;1.40;0.40;;;;;;;24.95;45.78;100619.66;107525;1279;22560;-64
2022/07/03 11:17:26;;;;;;;2.60;0.50;;;;;;;24.92;45.68;100614.36;105629;1279;25420;-65
2022/07/03 11:23:00;;;;;;;1.30;0.50;;;;;;;24.87;46.17;100605.08;104852;1284;24211;-65
2022/07/03 11:25:40;;;;;;;4.20;0.50;;;;;;;24.88;45.90;100602.95;104799;1284;22944;-64
2022/07/03 11:28:30;;;;;;;2.10;0.50;;;;;;;24.89;45.94;100598.15;105185;1284;22755;-65
2022/07/03 11:31:18;;;;;;;1.70;0.50;;;;;;;24.89;45.65;100592.50;105193;1284;25454;-65
2022/07/03 11:33:49;;;;;;;1.70;0.60;;;;;;;24.94;45.90;100592.70;104984;1284;22689;-66
2022/07/03 11:36:29;;;;;;;2.80;0.50;;;;;;;25.00;45.83;100592.59;104993;1284;24326;-65
2022/07/03 11:39:13;;;;;;;2.60;0.50;;;;;;;25.09;45.78;100591.17;105673;1279;22535;-66
2022/07/03 11:41:48;;;;;;;2.90;0.40;;;;;;;25.17;45.66;100582.83;105737;1279;24133;-66
2022/07/03 11:44:24;;;;;;;2.80;0.60;;;;;;;25.35;45.86;100594.47;105544;1279;22581;-66
2022/07/03 11:46:56;;;;;;;2.10;0.60;;;;;;;25.53;45.75;100592.30;105823;1279;24456;-65
2022/07/03 11:49:27;;;;;;;1.20;0.50;;;;;;;25.64;44.44;100590.23;105400;1279;22735;-64
2022/07/03 11:51:58;;;;;;;1.70;0.60;;;;;;;25.68;44.86;100590.70;105519;1279;23946;-64
2022/07/03 11:54:30;;;;;;;2.40;0.40;;;;;;;25.69;44.46;100588.95;105555;1280;22568;-64